Taihei Maru — JG5546 — position and weather

sailwx.info

Track history (hours):
 
Tides and Currents Weather Stations Pressure Air Temp Water Temp Dewpoint Dewpoint Depression Visibility Wind Speed Wind Dir Waves Ship Positions

Taihei Maru

Last reported at 2017-Sep-24 02:55 UTC. Time now 2017-Sep-24 03:19 UTC.
Position N 34°33' E 135°25'.

Length 62 m; draft 4.3 m.

Type: Ship. MMSI: 431301369.

Date/timePositionNaut miles runAvg speedWind from/ knotsBaromVisibWave heightAir tempDewpointWater temp
2017-Sep-24 02:55N 34°33' E 135°25'3 6.3
2017-Sep-24 02:31N 34°33' E 135°22'2 3.8
2017-Sep-24 01:56N 34°33' E 135°19'0 0.0
2017-Sep-24 01:14N 34°33' E 135°19'0 0.0
2017-Sep-24 00:56N 34°33' E 135°19'0 0.0
2017-Sep-24 00:20N 34°33' E 135°19'0 0.0
2017-Sep-23 23:56N 34°33' E 135°19'0 0.1
2017-Sep-23 23:23N 34°33' E 135°19'2 6.4
2017-Sep-23 23:00N 34°33' E 135°17'611.9
2017-Sep-23 22:30N 34°34' E 135°09'713.4
2017-Sep-23 22:00N 34°36' E 135°02'19 0.4
2017-Sep-22 01:57N 34°33' E 135°25'1 2.9
2017-Sep-22 01:28N 34°34' E 135°23'1 3.3
2017-Sep-22 01:00N 34°36' E 135°23'0 0.0
2017-Sep-21 20:52N 34°36' E 135°23'0 0.0
2017-Sep-21 20:22N 34°36' E 135°23'0 0.0
2017-Sep-21 19:16N 34°36' E 135°23'0 0.0
2017-Sep-21 18:52N 34°36' E 135°23'0 0.0
2017-Sep-21 18:28N 34°36' E 135°23'0 0.0
2017-Sep-21 17:58N 34°36' E 135°23'0 0.0
2017-Sep-21 17:16N 34°36' E 135°23'0 0.0
2017-Sep-21 16:58N 34°36' E 135°23'0 0.0
2017-Sep-21 16:28N 34°36' E 135°23'0 0.0
2017-Sep-21 15:46N 34°36' E 135°23'0 0.2
2017-Sep-21 15:28N 34°36' E 135°23'0 0.0
2017-Sep-21 14:04N 34°36' E 135°23'0 0.0
2017-Sep-21 11:28N 34°36' E 135°23'0 0.0
2017-Sep-21 01:59N 34°36' E 135°23'4 7.8
2017-Sep-21 01:30N 34°35' E 135°19'611.9
2017-Sep-21 01:00N 34°35' E 135°12'612.3
2017-Sep-21 00:30N 34°35' E 135°04'6 0.2
2017-Sep-19 07:02N 34°37' E 134°57'112.0
2017-Sep-19 06:59N 34°37' E 134°57'5 9.4
2017-Sep-19 06:26N 34°36' E 135°04'410.5
2017-Sep-19 06:01N 34°35' E 135°09'611.6
2017-Sep-19 05:30N 34°35' E 135°16'611.4
2017-Sep-19 05:00N 34°34' E 135°23'2 0.3
2017-Sep-18 22:07N 34°33' E 135°25'1 4.9
2017-Sep-18 22:00N 34°33' E 135°25'2 0.3
2017-Sep-18 15:47N 34°34' E 135°23'2 7.2
2017-Sep-18 15:30N 34°34' E 135°21'611.7
2017-Sep-18 15:00N 34°34' E 135°13'612.1
2017-Sep-18 14:30N 34°35' E 135°06'712.6
2017-Sep-18 13:59N 34°37' E 134°59'  
Track history (hours):
 
Tides and Currents Weather Stations Pressure Air Temp Water Temp Dewpoint Dewpoint Depression Visibility Wind Speed Wind Dir Waves Ship Positions

Taihei Maru

Last reported at 2017-Sep-24 02:55 UTC. Time now 2017-Sep-24 03:19 UTC.
Position N 34°33' E 135°25'.

Length 62 m; draft 4.3 m.

Type: Ship. MMSI: 431301369.

Date/timePositionNaut miles runAvg speedWind from/ knotsBaromVisibWave heightAir tempDewpointWater temp
2017-Sep-24 02:55N 34°33' E 135°25'3 6.3
2017-Sep-24 02:31N 34°33' E 135°22'2 3.8
2017-Sep-24 01:56N 34°33' E 135°19'0 0.0
2017-Sep-24 01:14N 34°33' E 135°19'0 0.0
2017-Sep-24 00:56N 34°33' E 135°19'0 0.0
2017-Sep-24 00:20N 34°33' E 135°19'0 0.0
2017-Sep-23 23:56N 34°33' E 135°19'0 0.1
2017-Sep-23 23:23N 34°33' E 135°19'2 6.4
2017-Sep-23 23:00N 34°33' E 135°17'611.9
2017-Sep-23 22:30N 34°34' E 135°09'713.4
2017-Sep-23 22:00N 34°36' E 135°02'19 0.4
2017-Sep-22 01:57N 34°33' E 135°25'1 2.9
2017-Sep-22 01:28N 34°34' E 135°23'1 3.3
2017-Sep-22 01:00N 34°36' E 135°23'0 0.0
2017-Sep-21 20:52N 34°36' E 135°23'0 0.0
2017-Sep-21 20:22N 34°36' E 135°23'0 0.0
2017-Sep-21 19:16N 34°36' E 135°23'0 0.0
2017-Sep-21 18:52N 34°36' E 135°23'0 0.0
2017-Sep-21 18:28N 34°36' E 135°23'0 0.0
2017-Sep-21 17:58N 34°36' E 135°23'0 0.0
2017-Sep-21 17:16N 34°36' E 135°23'0 0.0
2017-Sep-21 16:58N 34°36' E 135°23'0 0.0
2017-Sep-21 16:28N 34°36' E 135°23'0 0.0
2017-Sep-21 15:46N 34°36' E 135°23'0 0.2
2017-Sep-21 15:28N 34°36' E 135°23'0 0.0
2017-Sep-21 14:04N 34°36' E 135°23'0 0.0
2017-Sep-21 11:28N 34°36' E 135°23'0 0.0
2017-Sep-21 01:59N 34°36' E 135°23'4 7.8
2017-Sep-21 01:30N 34°35' E 135°19'611.9
2017-Sep-21 01:00N 34°35' E 135°12'612.3
2017-Sep-21 00:30N 34°35' E 135°04'6 0.2
2017-Sep-19 07:02N 34°37' E 134°57'112.0
2017-Sep-19 06:59N 34°37' E 134°57'5 9.4
2017-Sep-19 06:26N 34°36' E 135°04'410.5
2017-Sep-19 06:01N 34°35' E 135°09'611.6
2017-Sep-19 05:30N 34°35' E 135°16'611.4
2017-Sep-19 05:00N 34°34' E 135°23'2 0.3
2017-Sep-18 22:07N 34°33' E 135°25'1 4.9
2017-Sep-18 22:00N 34°33' E 135°25'2 0.3
2017-Sep-18 15:47N 34°34' E 135°23'2 7.2
2017-Sep-18 15:30N 34°34' E 135°21'611.7
2017-Sep-18 15:00N 34°34' E 135°13'612.1
2017-Sep-18 14:30N 34°35' E 135°06'712.6
2017-Sep-18 13:59N 34°37' E 134°59'  

Dump ship's entire track history